KBMQ

Burnet Municipal Kate Craddock Field Airport

Burnet, Texas, USA
METAR KBMQ 231553Z AUTO 03005KT 8SM OVC003 08/08 A3018 RMK AO2 SLP219 T00830078
Observed Flight Rules
Feb-23 @ 15:53 UTC (44 minutes ago) Instrument Flight Rules
Wind Visibility Clouds
30° at 5 knots 8 miles
  • Overcast at 300' AGL
Temperatures Readings
Current 8°C / 46°F
Dewpoint 8°C / 46°F
Humidity 100%
Altimeter 30.18" Hg
Pressure 1021.9 hPa
Elevation 389
METAR KBMQ 231553Z AUTO 03005KT 8SM OVC003 08/08 A3018 RMK AO2 SLP219 T00830078
Observed Flight Rules
Feb-23 @ 15:53 UTC
(44 minutes ago)
LIFR
Wind Visibility
30° at 5 knots 8 miles
Clouds
  • Overcast at 300' AGL
Temperature Dewpoint
8°C / 46°F 8°C / 46°F
Humidity Altimeter Pressure
100% 30.18" Hg 1021.9 hPa